createdAt,value
2023-04-19T00:03:15.161Z,57.96
2023-04-19T00:08:17.452Z,58.48
2023-04-19T00:13:19.735Z,58.43
2023-04-19T00:18:22.062Z,58.29
2023-04-19T00:23:24.195Z,58.23
2023-04-19T00:28:26.570Z,58.53
2023-04-19T00:33:28.804Z,58.42
2023-04-19T00:38:31.173Z,58.27
2023-04-19T00:43:33.334Z,58.09
2023-04-19T00:48:38.531Z,58.23
2023-04-19T00:53:41.573Z,59.16
2023-04-19T00:58:43.871Z,59.58
2023-04-19T01:03:47.256Z,58.64
2023-04-19T01:08:49.824Z,58.22
2023-04-19T01:13:52.287Z,58.30
2023-04-19T01:18:54.634Z,58.45
2023-04-19T01:23:56.770Z,58.57
2023-04-19T01:28:58.939Z,58.46
2023-04-19T01:34:01.121Z,58.34
2023-04-19T01:39:03.335Z,58.52
2023-04-19T01:44:05.486Z,58.91
2023-04-19T01:49:08.175Z,59.12
2023-04-19T01:54:10.265Z,59.30
2023-04-19T01:59:12.486Z,58.82
2023-04-19T02:04:14.894Z,59.22
2023-04-19T02:09:17.291Z,59.04
2023-04-19T02:14:19.537Z,58.88
2023-04-19T02:19:21.637Z,58.89
2023-04-19T02:24:25.023Z,59.20
2023-04-19T02:29:27.353Z,59.38
2023-04-19T02:34:29.484Z,59.70
2023-04-19T02:39:31.817Z,59.85
2023-04-19T02:44:33.980Z,60.13
2023-04-19T02:49:38.321Z,60.09
2023-04-19T02:54:40.489Z,60.16
2023-04-19T02:59:42.619Z,60.70
2023-04-19T03:04:44.771Z,60.77
2023-04-19T03:09:46.917Z,60.41
2023-04-19T03:14:49.871Z,61.33
2023-04-19T03:19:52.885Z,61.37
2023-04-19T03:24:54.952Z,61.40
2023-04-19T03:29:57.731Z,61.10
2023-04-19T03:34:59.818Z,61.28
2023-04-19T03:40:02.162Z,60.90
2023-04-19T03:45:04.757Z,60.87
2023-04-19T03:50:07.317Z,60.89
2023-04-19T03:55:10.366Z,60.73
2023-04-19T04:00:13.600Z,60.74
2023-04-19T04:05:16.259Z,60.68
2023-04-19T04:10:18.494Z,60.77
2023-04-19T04:15:20.732Z,60.92
2023-04-19T04:20:22.940Z,60.46
2023-04-19T04:25:26.332Z,60.70
2023-04-19T04:30:29.022Z,61.05
2023-04-19T04:35:31.237Z,60.74
2023-04-19T04:40:33.942Z,61.67
2023-04-19T04:45:36.171Z,61.10
2023-04-19T04:50:38.448Z,61.36
2023-04-19T04:55:40.593Z,60.90
2023-04-19T05:00:42.795Z,60.88
2023-04-19T05:05:45.353Z,60.50
2023-04-19T05:10:47.790Z,61.00
2023-04-19T05:15:49.971Z,61.98
2023-04-19T05:20:52.251Z,61.57
2023-04-19T05:25:54.420Z,61.54
2023-04-19T06:52:31.563Z,60.26
2023-04-19T06:57:33.910Z,60.65
2023-04-19T07:02:36.449Z,60.63
2023-04-19T07:07:38.818Z,59.10
2023-04-19T07:12:41.053Z,57.14
2023-04-19T07:17:43.254Z,54.91
2023-04-19T07:22:45.436Z,54.62
2023-04-19T07:27:47.646Z,53.36
2023-04-19T07:32:52.118Z,52.54
2023-04-19T07:37:54.468Z,51.91
2023-04-19T07:42:57.212Z,50.74
2023-04-19T07:47:59.458Z,48.01
2023-04-19T07:53:01.679Z,47.74
2023-04-19T07:58:07.491Z,47.17
2023-04-19T08:03:09.991Z,47.03
2023-04-19T08:08:12.930Z,47.02
2023-04-19T08:13:15.448Z,47.45
2023-04-19T08:18:17.649Z,46.52
2023-04-19T08:23:25.771Z,46.57
2023-04-19T08:28:30.092Z,46.07
2023-04-19T08:33:32.265Z,45.70
2023-04-19T08:38:34.557Z,45.13
2023-04-19T08:43:39.879Z,44.11
2023-04-19T08:48:45.524Z,44.08
2023-04-19T08:53:50.122Z,43.66
2023-04-19T09:04:10.439Z,42.37
2023-04-19T09:14:30.067Z,41.42
2023-04-19T09:19:47.099Z,40.35
2023-04-19T09:29:58.802Z,39.42
2023-04-19T09:35:01.295Z,39.72
2023-04-19T09:40:22.952Z,40.10
2023-04-19T09:50:31.882Z,40.31
2023-04-19T09:55:48.850Z,40.15
2023-04-19T10:01:13.511Z,40.27
2023-04-19T10:11:27.846Z,40.82
2023-04-19T10:16:31.192Z,40.36
2023-04-19T10:21:34.412Z,40.21
2023-04-19T10:27:14.151Z,39.99
2023-04-19T10:32:16.672Z,39.62
2023-04-19T10:37:23.656Z,39.82
2023-04-19T10:42:25.822Z,39.13
2023-04-19T10:47:46.373Z,41.31
2023-04-19T10:52:48.527Z,42.08
2023-04-19T10:58:04.389Z,41.81
2023-04-19T11:03:44.097Z,41.24
2023-04-19T11:08:47.522Z,41.19
2023-04-19T11:13:49.773Z,40.67
2023-04-19T11:18:52.131Z,41.46
2023-04-19T11:24:11.044Z,41.46
2023-04-19T11:29:13.806Z,41.92
2023-04-19T11:34:16.296Z,42.26
2023-04-19T11:39:20.090Z,42.09
2023-04-19T11:44:22.265Z,41.69
2023-04-19T11:49:33.092Z,42.28
2023-04-19T11:54:35.342Z,42.61
2023-04-19T11:59:37.562Z,42.59
2023-04-19T12:04:40.472Z,43.31
2023-04-19T12:09:42.734Z,41.51
2023-04-19T12:14:52.877Z,43.84
2023-04-19T12:19:55.206Z,46.02
2023-04-19T12:24:58.081Z,46.14
2023-04-19T12:30:00.280Z,46.84
2023-04-19T12:35:02.499Z,46.83
2023-04-19T12:40:05.670Z,46.98
2023-04-19T12:45:08.461Z,46.75
2023-04-19T12:50:11.109Z,46.48
2023-04-19T12:55:13.530Z,46.29
2023-04-19T13:00:15.979Z,45.76
2023-04-19T13:05:19.216Z,45.60
2023-04-19T13:10:21.588Z,45.40
2023-04-19T13:15:23.801Z,45.43
2023-04-19T13:20:26.073Z,45.98
2023-04-19T13:25:28.493Z,46.22
2023-04-19T13:30:31.070Z,46.37
2023-04-19T13:35:33.316Z,46.39
2023-04-19T13:40:35.616Z,46.12
2023-04-19T13:45:37.958Z,46.53
2023-04-19T13:50:40.372Z,47.93
2023-04-19T13:55:42.671Z,51.44
2023-04-19T14:00:45.170Z,51.72
2023-04-19T14:05:47.481Z,51.43
2023-04-19T14:10:51.440Z,51.45
2023-04-19T14:15:53.803Z,51.39
2023-04-19T14:20:56.328Z,51.55
2023-04-19T14:25:58.507Z,51.76
2023-04-19T14:31:02.968Z,50.12
2023-04-19T14:36:05.250Z,48.85
2023-04-19T14:41:07.810Z,50.14
2023-04-19T14:46:10.142Z,52.22
2023-04-19T14:51:12.409Z,55.46
2023-04-19T14:56:14.598Z,55.33
2023-04-19T15:01:16.804Z,54.58
2023-04-19T15:06:19.059Z,56.26
2023-04-19T15:11:21.458Z,55.56
2023-04-19T15:16:23.657Z,54.67
2023-04-19T15:21:26.180Z,54.28
2023-04-19T15:26:29.300Z,56.04
2023-04-19T15:31:32.767Z,56.75
2023-04-19T15:36:35.030Z,56.48
2023-04-19T15:41:37.286Z,55.66
2023-04-19T15:46:39.562Z,55.35
2023-04-19T15:51:41.825Z,56.20
2023-04-19T15:56:44.145Z,55.34
2023-04-19T16:01:46.371Z,52.66
2023-04-19T16:06:48.650Z,52.05
2023-04-19T16:11:51.081Z,51.96
2023-04-19T16:16:54.164Z,52.23
2023-04-19T16:21:57.213Z,48.14
2023-04-19T16:26:59.440Z,44.90
2023-04-19T16:32:01.856Z,47.19
2023-04-19T16:37:04.189Z,49.67
2023-04-19T16:42:06.530Z,49.47
2023-04-19T16:47:08.802Z,49.73
2023-04-19T16:52:11.058Z,51.06
2023-04-19T16:57:13.284Z,50.41
2023-04-19T17:02:15.879Z,50.18
2023-04-19T17:07:18.253Z,49.86
2023-04-19T17:12:20.525Z,50.56
2023-04-19T17:17:22.780Z,52.51
2023-04-19T17:22:25.032Z,53.17
2023-04-19T17:27:27.320Z,53.13
2023-04-19T17:32:29.556Z,53.06
2023-04-19T17:37:31.974Z,54.35
2023-04-19T17:42:34.133Z,55.53
2023-04-19T17:47:36.379Z,54.94
2023-04-19T17:52:39.642Z,55.20
2023-04-19T17:57:41.929Z,56.54
2023-04-19T18:02:44.224Z,57.27
2023-04-19T18:07:47.047Z,55.96
2023-04-19T18:12:49.310Z,55.77
2023-04-19T18:17:51.572Z,55.13
2023-04-19T18:22:54.078Z,55.01
2023-04-19T18:27:56.389Z,54.96
2023-04-19T18:32:59.284Z,55.38
2023-04-19T18:38:02.078Z,55.06
2023-04-19T18:43:04.320Z,55.27
2023-04-19T18:48:06.719Z,55.53
2023-04-19T18:53:08.892Z,55.35
2023-04-19T18:58:12.330Z,56.11
2023-04-19T19:03:33.878Z,56.13
2023-04-19T19:08:36.869Z,56.43
2023-04-19T19:13:39.847Z,56.40
2023-04-19T19:18:42.054Z,57.20
2023-04-19T19:23:44.280Z,56.98
2023-04-19T19:28:47.365Z,57.36
2023-04-19T19:33:53.541Z,58.60
2023-04-19T19:39:00.463Z,59.16
2023-04-19T19:44:03.105Z,58.75
2023-04-19T19:49:06.548Z,58.75
2023-04-19T19:54:10.067Z,58.25
2023-04-19T19:59:14.076Z,59.51
2023-04-19T20:04:16.662Z,61.09
2023-04-19T20:09:19.236Z,62.85
2023-04-19T20:14:25.467Z,63.62
2023-04-19T20:19:27.945Z,61.85
2023-04-19T20:24:31.220Z,63.93
2023-04-19T20:29:33.472Z,62.79
2023-04-19T20:34:35.776Z,61.01
2023-04-19T20:39:38.129Z,59.92
2023-04-19T20:44:40.750Z,58.78
2023-04-19T20:49:42.923Z,58.82
2023-04-19T20:54:45.184Z,58.52
2023-04-19T20:59:49.370Z,57.62
2023-04-19T21:04:51.655Z,57.54
2023-04-19T21:09:53.849Z,57.91
2023-04-19T21:14:56.105Z,59.69
2023-04-19T21:19:58.244Z,59.61
2023-04-19T21:25:00.443Z,59.60
2023-04-19T21:30:06.549Z,59.59
2023-04-19T21:35:09.137Z,58.61
2023-04-19T21:40:11.742Z,58.64
2023-04-19T21:45:13.934Z,59.55
2023-04-19T21:50:16.264Z,59.14
2023-04-19T21:55:19.033Z,58.46
2023-04-19T22:00:21.221Z,58.91
2023-04-19T22:05:23.471Z,58.92
2023-04-19T22:10:26.250Z,58.98
2023-04-19T22:15:29.028Z,58.84
2023-04-19T22:20:32.626Z,58.66
2023-04-19T22:25:34.979Z,58.65
2023-04-19T22:30:37.935Z,59.51
2023-04-19T22:35:40.145Z,59.83
2023-04-19T22:40:42.646Z,59.62
2023-04-19T22:45:48.380Z,59.39
2023-04-19T22:50:52.933Z,60.03
2023-04-19T22:55:55.220Z,59.82
2023-04-19T23:00:57.510Z,59.76
2023-04-19T23:06:00.963Z,59.82
2023-04-19T23:11:05.346Z,60.37
2023-04-19T23:16:11.401Z,60.39
2023-04-19T23:21:13.650Z,61.57
2023-04-19T23:26:16.035Z,61.16
2023-04-19T23:31:18.363Z,60.77
2023-04-19T23:36:20.830Z,60.38
2023-04-19T23:41:23.072Z,60.16
2023-04-19T23:46:25.448Z,60.43
2023-04-19T23:51:28.324Z,61.31
2023-04-19T23:56:30.912Z,62.42
